createdAt,value
2023-01-30T00:00:00.153Z, 88.9
2023-01-30T00:02:00.463Z, 89.4
2023-01-30T00:04:00.094Z, 90.1
2023-01-30T00:06:00.072Z, 90.6
2023-01-30T00:08:00.098Z, 91
2023-01-30T00:10:00.131Z, 91.3
2023-01-30T00:12:00.131Z, 91.7
2023-01-30T00:14:00.127Z, 92
2023-01-30T00:16:00.133Z, 92.2
2023-01-30T00:18:00.115Z, 92.2
2023-01-30T00:20:00.117Z, 92.2
2023-01-30T00:22:00.111Z, 92.2
2023-01-30T00:24:00.164Z, 92
2023-01-30T00:26:00.084Z, 91.9
2023-01-30T00:28:00.102Z, 92
2023-01-30T00:30:03.228Z, 92.1
2023-01-30T00:32:00.164Z, 92.4
2023-01-30T00:34:00.101Z, 92.7
2023-01-30T00:36:00.091Z, 92.9
2023-01-30T00:38:00.092Z, 93.1
2023-01-30T00:40:00.120Z, 93.1
2023-01-30T00:42:00.092Z, 93.2
2023-01-30T00:44:00.112Z, 93.3
2023-01-30T00:46:00.345Z, 93.3
2023-01-30T00:48:00.106Z, 93.2
2023-01-30T00:50:00.111Z, 93.2
2023-01-30T00:52:00.109Z, 92.9
2023-01-30T00:54:00.097Z, 92.8
2023-01-30T00:56:00.117Z, 92.7
2023-01-30T00:58:00.112Z, 92.6
2023-01-30T01:00:00.165Z, 92.3
2023-01-30T01:02:00.201Z, 92.1
2023-01-30T01:04:00.242Z, 92
2023-01-30T01:06:00.289Z, 91.9
2023-01-30T01:08:00.099Z, 92
2023-01-30T01:10:00.091Z, 92
2023-01-30T01:12:00.095Z, 91.8
2023-01-30T01:14:00.113Z, 91.6
2023-01-30T01:16:00.190Z, 91.5
2023-01-30T01:18:00.096Z, 91.3
2023-01-30T01:20:00.151Z, 91.1
2023-01-30T01:22:00.110Z, 91.2
2023-01-30T01:24:00.178Z, 91.3
2023-01-30T01:26:00.121Z, 91.2
2023-01-30T01:28:00.125Z, 91.2
2023-01-30T01:30:02.277Z, 91.1
2023-01-30T01:32:00.242Z, 91
2023-01-30T01:34:00.090Z, 91.1
2023-01-30T01:36:00.112Z, 91.2
2023-01-30T01:38:00.109Z, 91.4
2023-01-30T01:40:00.112Z, 91.5
2023-01-30T01:42:00.113Z, 91.6
2023-01-30T01:44:00.107Z, 91.6
2023-01-30T01:46:00.189Z, 91.6
2023-01-30T01:48:00.152Z, 91.6
2023-01-30T01:50:00.125Z, 91.8
2023-01-30T01:52:00.080Z, 91.8
2023-01-30T01:54:00.107Z, 91.9
2023-01-30T01:56:00.098Z, 91.7
2023-01-30T01:58:00.098Z, 91.8
2023-01-30T02:00:00.112Z, 91.8
2023-01-30T02:02:00.271Z, 91.7
2023-01-30T02:04:00.112Z, 91.6
2023-01-30T02:06:00.121Z, 91.5
2023-01-30T02:08:00.099Z, 91.5
2023-01-30T02:10:00.089Z, 91.7
2023-01-30T02:12:00.091Z, 91.8
2023-01-30T02:14:00.084Z, 91.8
2023-01-30T02:16:00.128Z, 91.8
2023-01-30T02:18:00.108Z, 91.8
2023-01-30T02:20:00.119Z, 91.9
2023-01-30T02:22:00.107Z, 92
2023-01-30T02:24:00.099Z, 91.9
2023-01-30T02:26:00.096Z, 91.9
2023-01-30T02:28:00.095Z, 92
2023-01-30T02:30:00.115Z, 92.1
2023-01-30T02:32:00.095Z, 92
2023-01-30T02:34:00.094Z, 92.2
2023-01-30T02:36:00.123Z, 92.3
2023-01-30T02:38:00.093Z, 92.3
2023-01-30T02:40:00.135Z, 92.3
2023-01-30T02:42:00.103Z, 92.4
2023-01-30T02:44:00.094Z, 92.4
2023-01-30T02:46:00.167Z, 92.5
2023-01-30T02:48:00.101Z, 92.5
2023-01-30T02:50:00.119Z, 92.5
2023-01-30T02:52:00.108Z, 92.5
2023-01-30T02:54:00.087Z, 92.5
2023-01-30T02:56:00.110Z, 92.5
2023-01-30T02:58:00.284Z, 92.4
2023-01-30T03:00:00.391Z, 92.4
2023-01-30T03:02:00.066Z, 92.4
2023-01-30T03:04:00.072Z, 92.4
2023-01-30T03:06:00.093Z, 92.4
2023-01-30T03:08:00.108Z, 92.4
2023-01-30T03:10:00.108Z, 92.3
2023-01-30T03:12:00.107Z, 92.2
2023-01-30T03:14:00.147Z, 92.3
2023-01-30T03:16:00.224Z, 92.3
2023-01-30T03:18:00.101Z, 92.3
2023-01-30T03:20:00.088Z, 92.2
2023-01-30T03:22:00.088Z, 92.2
2023-01-30T03:24:00.106Z, 92.2
2023-01-30T03:26:00.105Z, 92.3
2023-01-30T03:28:00.093Z, 92.5
2023-01-30T03:30:00.114Z, 92.6
2023-01-30T03:32:00.132Z, 92.5
2023-01-30T03:34:00.120Z, 92.5
2023-01-30T03:36:00.101Z, 92.5
2023-01-30T03:38:00.093Z, 92.5
2023-01-30T03:40:00.116Z, 92.5
2023-01-30T03:42:00.102Z, 92.5
2023-01-30T03:44:00.105Z, 92.6
2023-01-30T03:46:00.140Z, 92.6
2023-01-30T03:48:00.140Z, 92.6
2023-01-30T03:50:00.116Z, 92.7
2023-01-30T03:52:00.109Z, 92.6
2023-01-30T03:54:00.120Z, 92.6
2023-01-30T03:56:00.108Z, 92.5
2023-01-30T03:58:00.107Z, 92.5
2023-01-30T04:00:00.283Z, 92.4
2023-01-30T04:02:00.371Z, 92.3
2023-01-30T04:04:00.151Z, 92.2
2023-01-30T04:06:00.108Z, 92.3
2023-01-30T04:08:00.128Z, 92.2
2023-01-30T04:10:00.101Z, 92.3
2023-01-30T04:12:00.093Z, 92.4
2023-01-30T04:14:00.080Z, 92.5
2023-01-30T04:16:00.090Z, 92.7
2023-01-30T04:18:00.130Z, 92.8
2023-01-30T04:20:00.119Z, 92.9
2023-01-30T04:22:00.109Z, 92.9
2023-01-30T04:24:00.091Z, 93
2023-01-30T04:26:00.089Z, 93.1
2023-01-30T04:28:00.111Z, 93.3
2023-01-30T04:30:00.100Z, 93.4
2023-01-30T04:32:00.111Z, 93.5
2023-01-30T04:34:00.079Z, 93.5
2023-01-30T04:36:00.086Z, 93.6
2023-01-30T04:38:00.084Z, 93.6
2023-01-30T04:40:00.113Z, 93.5
2023-01-30T04:42:00.117Z, 93.5
2023-01-30T04:44:00.143Z, 93.4
2023-01-30T04:46:00.155Z, 93.5
2023-01-30T04:48:00.115Z, 93.5
2023-01-30T04:50:00.135Z, 93.4
2023-01-30T04:52:00.113Z, 93.5
2023-01-30T04:54:00.140Z, 93.5
2023-01-30T04:56:00.112Z, 93.6
2023-01-30T04:58:00.104Z, 93.7
2023-01-30T05:00:00.158Z, 93.7
2023-01-30T05:02:00.115Z, 93.6
2023-01-30T05:04:00.106Z, 93.7
2023-01-30T05:06:00.096Z, 93.7
2023-01-30T05:08:00.099Z, 93.8
2023-01-30T05:10:00.118Z, 94.1
2023-01-30T05:12:00.082Z, 94.3
2023-01-30T05:14:00.114Z, 94.6
2023-01-30T05:16:00.106Z, 94.8
2023-01-30T05:18:00.126Z, 95.2
2023-01-30T05:20:00.097Z, 95.5
2023-01-30T05:22:00.097Z, 95.8
2023-01-30T05:24:00.119Z, 96.3
2023-01-30T05:26:00.118Z, 96.9
2023-01-30T05:28:00.157Z, 97.1
2023-01-30T05:30:00.140Z, 97.5
2023-01-30T05:32:00.119Z, 97.7
2023-01-30T05:34:00.114Z, 97.8
2023-01-30T05:36:00.102Z, 98
2023-01-30T05:38:00.107Z, 98.1
2023-01-30T05:40:00.289Z, 98.3
2023-01-30T05:42:00.111Z, 98.3
2023-01-30T05:44:00.101Z, 98.1
2023-01-30T05:46:00.140Z, 98.1
2023-01-30T05:48:01.629Z, 98.1
2023-01-30T05:50:00.144Z, 98
2023-01-30T05:52:00.110Z, 97.9
2023-01-30T05:54:00.117Z, 97.5
2023-01-30T05:56:00.131Z, 97.7
2023-01-30T05:58:00.147Z, 97.6
2023-01-30T06:00:00.112Z, 97
2023-01-30T06:02:00.130Z, 96.8
2023-01-30T06:04:00.156Z, 96.7
2023-01-30T06:06:00.111Z, 96.5
2023-01-30T06:08:00.095Z, 96.4
2023-01-30T06:10:00.104Z, 96.4
2023-01-30T06:12:00.121Z, 96.2
2023-01-30T06:14:00.081Z, 96.2
2023-01-30T06:16:00.161Z, 95.9
2023-01-30T06:18:00.115Z, 95.8
2023-01-30T06:20:00.210Z, 95.7
2023-01-30T06:22:00.100Z, 95.7
2023-01-30T06:24:00.119Z, 95.7
2023-01-30T06:26:01.227Z, 95.6
2023-01-30T06:28:00.106Z, 95.5
2023-01-30T06:30:00.353Z, 95.5
2023-01-30T06:32:00.345Z, 95.5
2023-01-30T06:34:00.372Z, 95.6
2023-01-30T06:36:00.517Z, 95.3
2023-01-30T06:38:00.406Z, 94.9
2023-01-30T06:40:00.127Z, 94.9
2023-01-30T06:42:00.104Z, 95
2023-01-30T06:44:00.100Z, 95.2
2023-01-30T06:46:00.286Z, 95.5
2023-01-30T06:48:00.117Z, 95.8
2023-01-30T06:50:00.129Z, 96.2
2023-01-30T06:52:00.009Z, 96.5
2023-01-30T06:54:00.008Z, 96.7
2023-01-30T06:56:00.012Z, 97
2023-01-30T06:57:59.997Z, 97.2
2023-01-30T07:00:00.120Z, 97.5
2023-01-30T07:02:00.159Z, 97.7
2023-01-30T07:04:00.185Z, 98
2023-01-30T07:06:00.116Z, 98.1
2023-01-30T07:08:00.096Z, 98.4
2023-01-30T07:10:07.900Z, 98.5
2023-01-30T07:12:00.108Z, 98.6
2023-01-30T07:14:00.102Z, 98.7
2023-01-30T07:16:00.092Z, 98.7
2023-01-30T07:18:00.123Z, 98.8
2023-01-30T07:20:00.099Z, 98.8
2023-01-30T07:22:01.843Z, 98.9
2023-01-30T07:24:00.107Z, 98.9
2023-01-30T07:26:00.113Z, 98.9
2023-01-30T07:28:00.075Z, 98.8
2023-01-30T07:30:00.111Z, 99
2023-01-30T07:32:00.185Z, 99.2
2023-01-30T07:34:00.101Z, 99.2
2023-01-30T07:36:00.115Z, 99.3
2023-01-30T07:38:00.101Z, 99.3
2023-01-30T07:40:00.144Z, 99.4
2023-01-30T07:42:00.106Z, 99.5
2023-01-30T07:44:00.101Z, 99.2
2023-01-30T07:46:00.107Z, 98.9
2023-01-30T07:48:00.115Z, 98.9
2023-01-30T07:50:00.170Z, 98.8
2023-01-30T07:52:00.104Z, 98.8
2023-01-30T07:54:00.093Z, 98.7
2023-01-30T07:56:00.092Z, 99
2023-01-30T07:58:00.122Z, 98.6
2023-01-30T08:00:00.103Z, 98.5
2023-01-30T08:02:00.165Z, 98.7
2023-01-30T08:04:00.339Z, 98.8
2023-01-30T08:06:00.261Z, 98.9
2023-01-30T08:08:00.100Z, 99
2023-01-30T08:10:00.091Z, 99.2
2023-01-30T08:12:00.104Z, 99.2
2023-01-30T08:14:00.117Z, 99.4
2023-01-30T08:16:00.115Z, 99.4
2023-01-30T08:18:00.108Z, 99.7
2023-01-30T08:20:00.095Z, 99.6
2023-01-30T08:22:00.099Z, 99.7
2023-01-30T08:24:01.220Z, 99.8
2023-01-30T08:26:00.098Z, 99.8
2023-01-30T08:28:00.106Z, 100
2023-01-30T08:30:00.096Z, 100
2023-01-30T08:32:00.116Z, 99.8
2023-01-30T08:34:00.099Z, 99.7
2023-01-30T08:36:00.110Z, 100
2023-01-30T08:38:00.086Z, 100
2023-01-30T08:40:00.152Z, 100
2023-01-30T08:42:00.102Z, 100
2023-01-30T08:44:00.128Z, 100
2023-01-30T08:46:00.091Z, 100
2023-01-30T08:48:00.105Z, 100
2023-01-30T08:50:00.120Z, 100
2023-01-30T08:52:00.090Z, 100
2023-01-30T08:54:00.110Z, 100
2023-01-30T08:56:00.094Z, 100
2023-01-30T08:58:00.254Z, 100
2023-01-30T09:00:00.104Z, 100
2023-01-30T09:02:00.112Z, 99.7
2023-01-30T09:04:00.106Z, 99.5
2023-01-30T09:06:00.111Z, 99.5
2023-01-30T09:08:00.094Z, 99.5
2023-01-30T09:10:00.095Z, 99.5
2023-01-30T09:12:00.096Z, 99.4
2023-01-30T09:14:00.105Z, 99.3
2023-01-30T09:16:00.091Z, 99.5
2023-01-30T09:18:00.096Z, 99.6
2023-01-30T09:20:00.125Z, 99.6
2023-01-30T09:22:00.089Z, 99.4
2023-01-30T09:24:00.103Z, 99.3
2023-01-30T09:26:00.122Z, 99.3
2023-01-30T09:28:00.102Z, 99.1
2023-01-30T09:30:00.334Z, 99
2023-01-30T09:32:00.074Z, 99.1
2023-01-30T09:34:00.103Z, 98.7
2023-01-30T09:36:00.073Z, 98.5
2023-01-30T09:38:00.100Z, 98.3
2023-01-30T09:40:00.094Z, 98
2023-01-30T09:42:00.094Z, 97.8
2023-01-30T09:44:00.084Z, 97.3
2023-01-30T09:46:00.141Z, 96.8
2023-01-30T09:48:01.600Z, 96.5
2023-01-30T09:50:00.092Z, 95.9
2023-01-30T09:52:00.095Z, 95.3
2023-01-30T09:54:01.067Z, 95.3
2023-01-30T09:56:00.109Z, 95.5
2023-01-30T09:58:00.093Z, 95.6
2023-01-30T10:00:00.129Z, 96.6
2023-01-30T10:02:00.107Z, 96.7
2023-01-30T10:04:00.121Z, 97.2
2023-01-30T10:06:00.117Z, 97.3
2023-01-30T10:08:00.175Z, 97.6
2023-01-30T10:10:00.104Z, 97.5
2023-01-30T10:12:00.090Z, 97.9
2023-01-30T10:14:00.127Z, 98.4
2023-01-30T10:16:00.141Z, 98.6
2023-01-30T10:18:00.119Z, 98.6
2023-01-30T10:20:00.097Z, 98.6
2023-01-30T10:22:00.197Z, 98.4
2023-01-30T10:24:00.087Z, 98.2
2023-01-30T10:26:00.100Z, 97.9
2023-01-30T10:28:00.112Z, 97.8
2023-01-30T10:30:00.103Z, 97.8
2023-01-30T10:32:00.086Z, 97.3
2023-01-30T10:34:00.095Z, 96.9
2023-01-30T10:36:00.089Z, 96.5
2023-01-30T10:38:00.399Z, 96.1
2023-01-30T10:40:00.127Z, 95.8
2023-01-30T10:42:00.055Z, 95.4
2023-01-30T10:44:00.058Z, 95.3
2023-01-30T10:46:00.067Z, 94.8
2023-01-30T10:48:00.030Z, 94.8
2023-01-30T10:50:00.071Z, 94.6
2023-01-30T10:52:00.097Z, 94.5
2023-01-30T10:54:00.099Z, 94.3
2023-01-30T10:56:00.106Z, 93.8
2023-01-30T10:58:00.123Z, 93.5
2023-01-30T11:00:00.094Z, 92.7
2023-01-30T11:02:00.162Z, 92.5
2023-01-30T11:04:00.068Z, 91.6
2023-01-30T11:06:00.087Z, 91
2023-01-30T11:08:00.103Z, 90.8
2023-01-30T11:10:00.126Z, 91.2
2023-01-30T11:12:00.083Z, 91
2023-01-30T11:14:00.097Z, 91.4
2023-01-30T11:16:00.123Z, 91.7
2023-01-30T11:18:24.264Z, 92.1
2023-01-30T11:20:00.253Z, 91.9
2023-01-30T11:22:00.210Z, 91.9
2023-01-30T11:24:00.114Z, 92
2023-01-30T11:26:10.855Z, 92
2023-01-30T11:28:00.089Z, 91.9
2023-01-30T11:30:00.109Z, 91.8
2023-01-30T11:32:00.259Z, 91.9
2023-01-30T11:34:00.100Z, 91.9
2023-01-30T11:36:00.110Z, 91.7
2023-01-30T11:38:00.089Z, 91.5
2023-01-30T11:40:00.100Z, 91.8
2023-01-30T11:42:00.088Z, 91.6
2023-01-30T11:44:00.083Z, 91.6
2023-01-30T11:46:00.147Z, 91.9
2023-01-30T11:48:05.021Z, 92.1
2023-01-30T11:50:04.722Z, 91.9
2023-01-30T11:52:00.103Z, 91.6
2023-01-30T11:54:00.087Z, 92
2023-01-30T11:56:06.316Z, 91.8
2023-01-30T11:58:00.110Z, 91.6
2023-01-30T12:00:00.135Z, 91.3
2023-01-30T12:02:00.175Z, 91
2023-01-30T12:04:00.098Z, 90.8
2023-01-30T12:06:00.076Z, 90.8
2023-01-30T12:08:00.095Z, 90.9
2023-01-30T12:10:00.156Z, 91.1
2023-01-30T12:12:00.124Z, 90.7
2023-01-30T12:14:00.089Z, 90.8
2023-01-30T12:16:00.183Z, 89.8
2023-01-30T12:18:00.132Z, 88.8
2023-01-30T12:20:00.106Z, 87.7
2023-01-30T12:22:00.119Z, 86.6
2023-01-30T12:24:00.099Z, 85.9
2023-01-30T12:26:00.140Z, 85.6
2023-01-30T12:28:00.144Z, 85.9
2023-01-30T12:30:00.135Z, 85.2
2023-01-30T12:32:00.104Z, 85.2
2023-01-30T12:34:00.161Z, 85
2023-01-30T12:36:00.102Z, 85.3
2023-01-30T12:38:00.111Z, 86
2023-01-30T12:40:00.100Z, 85.4
2023-01-30T12:42:00.100Z, 85.6
2023-01-30T12:44:00.097Z, 85.3
2023-01-30T12:46:00.174Z, 85.3
2023-01-30T12:48:00.126Z, 85.3
2023-01-30T12:50:00.112Z, 85.2
2023-01-30T12:52:00.114Z, 85.2
2023-01-30T12:54:00.069Z, 85.4
2023-01-30T12:56:00.149Z, 85.2
2023-01-30T12:58:00.067Z, 85.6
2023-01-30T13:00:00.110Z, 85.4
2023-01-30T13:02:00.110Z, 85.6
2023-01-30T13:04:00.141Z, 86.1
2023-01-30T13:06:00.116Z, 86.5
2023-01-30T13:08:00.138Z, 86.2
2023-01-30T13:10:00.079Z, 86
2023-01-30T13:12:00.099Z, 85
2023-01-30T13:14:00.096Z, 84.9
2023-01-30T13:16:00.188Z, 83.9
2023-01-30T13:18:00.090Z, 83.3
2023-01-30T13:20:00.110Z, 82.6
2023-01-30T13:22:00.106Z, 80.1
2023-01-30T13:24:00.122Z, 78.3
2023-01-30T13:26:00.094Z, 77.6
2023-01-30T13:28:00.103Z, 76
2023-01-30T13:30:00.117Z, 75.4
2023-01-30T13:32:00.248Z, 74.6
2023-01-30T13:34:00.086Z, 74.4
2023-01-30T13:36:00.093Z, 73.4
2023-01-30T13:38:00.105Z, 72.6
2023-01-30T13:40:00.127Z, 73
2023-01-30T13:42:00.092Z, 73.1
2023-01-30T13:44:00.112Z, 73.8
2023-01-30T13:46:00.108Z, 73.8
2023-01-30T13:48:00.122Z, 74.4
2023-01-30T13:50:00.118Z, 74.8
2023-01-30T13:52:00.100Z, 74.7
2023-01-30T13:54:00.109Z, 73.7
2023-01-30T13:56:00.110Z, 73.2
2023-01-30T13:58:00.103Z, 72.9
2023-01-30T14:00:00.109Z, 72.2
2023-01-30T14:02:00.219Z, 72
2023-01-30T14:04:00.095Z, 71.7
2023-01-30T14:06:00.113Z, 71.9
2023-01-30T14:08:00.099Z, 71.9
2023-01-30T14:10:00.104Z, 70
2023-01-30T14:12:00.092Z, 69.9
2023-01-30T14:14:00.110Z, 68.5
2023-01-30T14:16:00.208Z, 69.2
2023-01-30T14:18:00.095Z, 68.8
2023-01-30T14:20:00.125Z, 67.9
2023-01-30T14:22:00.097Z, 68.6
2023-01-30T14:24:00.137Z, 68.7
2023-01-30T14:26:00.115Z, 69.9
2023-01-30T14:28:00.118Z, 70.3
2023-01-30T14:30:00.120Z, 71.7
2023-01-30T14:32:00.213Z, 72.5
2023-01-30T14:34:00.115Z, 73.3
2023-01-30T14:36:00.120Z, 72.1
2023-01-30T14:38:00.101Z, 71.5
2023-01-30T14:40:00.098Z, 70.8
2023-01-30T14:42:00.099Z, 68.9
2023-01-30T14:44:00.112Z, 69
2023-01-30T14:46:00.093Z, 68.7
2023-01-30T14:48:00.219Z, 68.8
2023-01-30T14:50:00.106Z, 68.1
2023-01-30T14:52:00.103Z, 68.4
2023-01-30T14:54:00.083Z, 68.9
2023-01-30T14:56:00.090Z, 68.3
2023-01-30T14:58:00.116Z, 68.3
2023-01-30T15:00:14.878Z, 67.9
2023-01-30T15:02:00.160Z, 68.6
2023-01-30T15:04:00.095Z, 68
2023-01-30T15:06:00.091Z, 67.9
2023-01-30T15:08:00.111Z, 68.5
2023-01-30T15:10:00.108Z, 69.3
2023-01-30T15:12:00.095Z, 69.7
2023-01-30T15:14:00.097Z, 69.7
2023-01-30T15:16:00.146Z, 70.8
2023-01-30T15:18:07.968Z, 71.5
2023-01-30T15:20:00.089Z, 72.1
2023-01-30T15:22:00.118Z, 72.9
2023-01-30T15:24:00.144Z, 73.1
2023-01-30T15:26:00.095Z, 72.9
2023-01-30T15:28:00.131Z, 72.7
2023-01-30T15:30:00.110Z, 72.1
2023-01-30T15:32:00.241Z, 72.5
2023-01-30T15:34:00.103Z, 73.7
2023-01-30T15:36:00.136Z, 73.6
2023-01-30T15:38:00.106Z, 73.6
2023-01-30T15:40:00.103Z, 74.1
2023-01-30T15:42:00.091Z, 73.3
2023-01-30T15:44:00.490Z, 73.8
2023-01-30T15:46:00.285Z, 73.3
2023-01-30T15:48:00.077Z, 72.8
2023-01-30T15:50:00.132Z, 72.8
2023-01-30T15:52:00.090Z, 72.5
2023-01-30T15:54:00.125Z, 72.9
2023-01-30T15:56:00.086Z, 73.2
2023-01-30T15:58:00.113Z, 73.3
2023-01-30T16:00:00.125Z, 73.4
2023-01-30T16:02:00.238Z, 74
2023-01-30T16:04:00.097Z, 74.7
2023-01-30T16:06:00.143Z, 74
2023-01-30T16:08:00.097Z, 73.7
2023-01-30T16:10:07.385Z, 73.5
2023-01-30T16:12:00.107Z, 73.8
2023-01-30T16:14:00.101Z, 73.5
2023-01-30T16:16:00.084Z, 73.5
2023-01-30T16:18:00.082Z, 73.8
2023-01-30T16:20:00.093Z, 73.2
2023-01-30T16:22:00.086Z, 73.9
2023-01-30T16:24:00.114Z, 74.3
2023-01-30T16:26:00.119Z, 74.9
2023-01-30T16:28:00.234Z, 75.2
2023-01-30T16:30:00.378Z, 75.7
2023-01-30T16:32:00.449Z, 75.4
2023-01-30T16:34:00.103Z, 75
2023-01-30T16:36:00.095Z, 75.2
2023-01-30T16:38:00.451Z, 75.7
2023-01-30T16:40:00.114Z, 75.8
2023-01-30T16:42:00.087Z, 75.1
2023-01-30T16:44:00.099Z, 75.6
2023-01-30T16:46:00.126Z, 75.6
2023-01-30T16:48:00.125Z, 76
2023-01-30T16:50:00.200Z, 76.2
2023-01-30T16:52:00.082Z, 76.4
2023-01-30T16:54:00.138Z, 77
2023-01-30T16:56:00.130Z, 76
2023-01-30T16:58:00.127Z, 74.8
2023-01-30T17:00:00.093Z, 74.5
2023-01-30T17:02:00.296Z, 74.6
2023-01-30T17:04:00.100Z, 75.5
2023-01-30T17:06:00.109Z, 74.8
2023-01-30T17:08:00.098Z, 74.6
2023-01-30T17:10:00.112Z, 74.8
2023-01-30T17:12:00.235Z, 74.7
2023-01-30T17:14:00.111Z, 74.9
2023-01-30T17:16:00.165Z, 75
2023-01-30T17:18:00.099Z, 75.4
2023-01-30T17:20:00.103Z, 75.7
2023-01-30T17:22:00.089Z, 75.6
2023-01-30T17:24:00.112Z, 75.6
2023-01-30T17:26:00.107Z, 75.6
2023-01-30T17:28:00.113Z, 75.9
2023-01-30T17:30:00.092Z, 76.2
2023-01-30T17:32:00.298Z, 76
2023-01-30T17:34:00.229Z, 76.6
2023-01-30T17:36:00.093Z, 76.1
2023-01-30T17:38:05.780Z, 75.8
2023-01-30T17:40:00.121Z, 76.1
2023-01-30T17:42:00.103Z, 76.1
2023-01-30T17:44:00.103Z, 76.3
2023-01-30T17:46:00.132Z, 76.6
2023-01-30T17:48:00.086Z, 77.2
2023-01-30T17:50:00.119Z, 77.2
2023-01-30T17:52:00.131Z, 77.8
2023-01-30T17:54:00.124Z, 77.3
2023-01-30T17:56:00.129Z, 77.2
2023-01-30T17:58:00.124Z, 77.5
2023-01-30T18:00:00.094Z, 77.3
2023-01-30T18:02:00.105Z, 77
2023-01-30T18:04:00.071Z, 76.9
2023-01-30T18:06:00.035Z, 77.4
2023-01-30T18:08:00.096Z, 77.2
2023-01-30T18:10:00.324Z, 76.9
2023-01-30T18:12:00.125Z, 76.9
2023-01-30T18:14:00.108Z, 76.4
2023-01-30T18:16:00.095Z, 76.4
2023-01-30T18:18:00.105Z, 76.5
2023-01-30T18:20:00.105Z, 76.5
2023-01-30T18:22:00.151Z, 76.6
2023-01-30T18:24:00.091Z, 76.2
2023-01-30T18:26:00.241Z, 76.2
2023-01-30T18:28:00.101Z, 76.3
2023-01-30T18:30:00.116Z, 76.7
2023-01-30T18:32:00.133Z, 77.3
2023-01-30T18:34:00.116Z, 77.6
2023-01-30T18:36:00.091Z, 77.8
2023-01-30T18:38:02.819Z, 77.5
2023-01-30T18:40:00.134Z, 77.4
2023-01-30T18:42:00.115Z, 77.4
2023-01-30T18:44:00.113Z, 78
2023-01-30T18:46:00.145Z, 78.9
2023-01-30T18:48:00.107Z, 79.6
2023-01-30T18:50:00.110Z, 80.5
2023-01-30T18:52:00.104Z, 81.9
2023-01-30T18:54:00.099Z, 83.3
2023-01-30T18:56:00.115Z, 84.5
2023-01-30T18:58:00.112Z, 85.6
2023-01-30T19:00:00.364Z, 86
2023-01-30T19:02:00.071Z, 86.7
2023-01-30T19:04:00.162Z, 87.5
2023-01-30T19:06:00.090Z, 88.3
2023-01-30T19:08:00.099Z, 88.6
2023-01-30T19:10:00.122Z, 88.1
2023-01-30T19:12:00.088Z, 87.6
2023-01-30T19:14:00.095Z, 86.5
2023-01-30T19:16:00.150Z, 84.7
2023-01-30T19:18:00.096Z, 83
2023-01-30T19:20:00.110Z, 82.7
2023-01-30T19:22:00.098Z, 81.3
2023-01-30T19:24:00.099Z, 80.6
2023-01-30T19:26:00.121Z, 80.7
2023-01-30T19:28:00.112Z, 81
2023-01-30T19:30:00.114Z, 80.3
2023-01-30T19:32:00.262Z, 79.8
2023-01-30T19:34:00.092Z, 79.8
2023-01-30T19:36:00.100Z, 79.1
2023-01-30T19:38:00.107Z, 79.2
2023-01-30T19:40:00.183Z, 79.4
2023-01-30T19:42:00.139Z, 80
2023-01-30T19:44:00.115Z, 80.6
2023-01-30T19:46:00.211Z, 80.8
2023-01-30T19:48:00.106Z, 80.4
2023-01-30T19:50:00.120Z, 80.4
2023-01-30T19:52:00.090Z, 81.1
2023-01-30T19:54:00.085Z, 81.5
2023-01-30T19:56:00.133Z, 81.2
2023-01-30T19:58:00.108Z, 80
2023-01-30T20:00:00.094Z, 79.6
2023-01-30T20:02:00.128Z, 79.7
2023-01-30T20:04:00.074Z, 79.6
2023-01-30T20:06:00.098Z, 80.4
2023-01-30T20:08:00.101Z, 80.4
2023-01-30T20:10:00.111Z, 80.9
2023-01-30T20:12:00.096Z, 81.6
2023-01-30T20:14:00.099Z, 82.1
2023-01-30T20:16:00.195Z, 82.6
2023-01-30T20:18:00.087Z, 82.6
2023-01-30T20:20:00.109Z, 82.3
2023-01-30T20:22:00.160Z, 82.3
2023-01-30T20:24:00.209Z, 82.5
2023-01-30T20:26:00.106Z, 82.5
2023-01-30T20:28:00.102Z, 82.5
2023-01-30T20:30:00.123Z, 82.2
2023-01-30T20:32:00.170Z, 82.1
2023-01-30T20:34:00.107Z, 81.9
2023-01-30T20:36:00.113Z, 82.2
2023-01-30T20:38:00.613Z, 81.8
2023-01-30T20:40:00.110Z, 81.5
2023-01-30T20:42:00.089Z, 81.6
2023-01-30T20:44:00.099Z, 81.6
2023-01-30T20:46:00.079Z, 82
2023-01-30T20:48:00.079Z, 82.4
2023-01-30T20:50:00.095Z, 82.1
2023-01-30T20:52:00.085Z, 82.5
2023-01-30T20:54:00.108Z, 82.9
2023-01-30T20:56:00.107Z, 83.3
2023-01-30T20:58:00.097Z, 82.4
2023-01-30T21:00:00.127Z, 83.1
2023-01-30T21:02:00.108Z, 83.8
2023-01-30T21:04:00.136Z, 84.1
2023-01-30T21:06:00.107Z, 84.9
2023-01-30T21:08:00.091Z, 85.7
2023-01-30T21:10:00.109Z, 86.2
2023-01-30T21:12:00.115Z, 86.6
2023-01-30T21:14:00.720Z, 87
2023-01-30T21:16:00.460Z, 87.1
2023-01-30T21:18:00.405Z, 87.4
2023-01-30T21:20:00.400Z, 88
2023-01-30T21:22:00.119Z, 87.8
2023-01-30T21:24:00.095Z, 88.1
2023-01-30T21:26:00.527Z, 88.5
2023-01-30T21:28:00.408Z, 88.4
2023-01-30T21:30:00.284Z, 88
2023-01-30T21:32:00.183Z, 88.4
2023-01-30T21:34:00.117Z, 88.6
2023-01-30T21:36:00.120Z, 89
2023-01-30T21:38:00.111Z, 89.2
2023-01-30T21:40:00.111Z, 89.4
2023-01-30T21:42:00.099Z, 89.7
2023-01-30T21:44:00.103Z, 90
2023-01-30T21:46:00.182Z, 90.3
2023-01-30T21:48:00.091Z, 90.6
2023-01-30T21:50:00.102Z, 90.7
2023-01-30T21:52:00.089Z, 90.8
2023-01-30T21:54:00.138Z, 91.1
2023-01-30T21:56:00.121Z, 91.6
2023-01-30T21:58:00.169Z, 91.6
2023-01-30T22:00:00.143Z, 92
2023-01-30T22:02:00.116Z, 92.5
2023-01-30T22:04:00.107Z, 92.8
2023-01-30T22:06:00.105Z, 93.1
2023-01-30T22:08:00.219Z, 93.1
2023-01-30T22:10:00.110Z, 93
2023-01-30T22:12:00.101Z, 93.4
2023-01-30T22:14:00.273Z, 93.9
2023-01-30T22:16:00.087Z, 94.1
2023-01-30T22:18:00.104Z, 94.3
2023-01-30T22:20:00.092Z, 94.2
2023-01-30T22:22:00.121Z, 94.2
2023-01-30T22:24:00.101Z, 94.2
2023-01-30T22:26:00.095Z, 93.8
2023-01-30T22:28:00.109Z, 93.4
2023-01-30T22:30:00.116Z, 93.2
2023-01-30T22:32:00.151Z, 92.7
2023-01-30T22:34:00.166Z, 92.4
2023-01-30T22:36:00.118Z, 92.2
2023-01-30T22:38:00.103Z, 92.5
2023-01-30T22:40:00.136Z, 92.5
2023-01-30T22:42:00.109Z, 92.8
2023-01-30T22:44:00.084Z, 93.2
2023-01-30T22:46:00.767Z, 93.4
2023-01-30T22:48:00.103Z, 93.6
2023-01-30T22:50:00.101Z, 93.8
2023-01-30T22:52:00.089Z, 93.9
2023-01-30T22:54:00.089Z, 93.8
2023-01-30T22:56:00.105Z, 93.7
2023-01-30T22:58:00.113Z, 93.4
2023-01-30T23:00:00.137Z, 93.1
2023-01-30T23:02:00.272Z, 92.9
2023-01-30T23:04:00.119Z, 92.9
2023-01-30T23:06:00.119Z, 93.1
2023-01-30T23:08:00.113Z, 93.4
2023-01-30T23:10:00.153Z, 93.9
2023-01-30T23:12:00.098Z, 94.4
2023-01-30T23:14:00.103Z, 94.9
2023-01-30T23:16:00.121Z, 95.9
2023-01-30T23:18:00.128Z, 96.5
2023-01-30T23:20:00.103Z, 96.8
2023-01-30T23:22:00.103Z, 97.2
2023-01-30T23:24:00.108Z, 97.5
2023-01-30T23:26:00.099Z, 97.7
2023-01-30T23:28:00.126Z, 98.1
2023-01-30T23:30:00.201Z, 98.3
2023-01-30T23:32:00.154Z, 98.4
2023-01-30T23:34:00.109Z, 98.5
2023-01-30T23:36:00.127Z, 98.9
2023-01-30T23:38:00.103Z, 99.5
2023-01-30T23:40:00.105Z, 99.9
2023-01-30T23:42:00.185Z, 100
2023-01-30T23:44:00.119Z, 100
2023-01-30T23:46:00.178Z, 100
2023-01-30T23:48:00.118Z, 100
2023-01-30T23:50:00.136Z, 100
2023-01-30T23:52:00.097Z, 100
2023-01-30T23:54:00.091Z, 100
2023-01-30T23:56:00.089Z, 100
2023-01-30T23:58:00.118Z, 100
